Погода Вантеевона 2 недели

Тверская область, Россия

23 июля-05 августа
  • 23июля
    Сегодня
    +10°
    +25°
    Облачно с прояснениями
    ВремяПогодаТемператураВлажностьДавлениеВетер, м/сВероятность осадков
    00:00Ясно и безоблачно+14°C80 %749 мм0.4 м/с2 %
    03:00Ясно и безоблачно+12°C87 %749 мм0.7 м/с2 %
    06:00Ясно и безоблачно+13°C85 %750 мм0.9 м/с2 %
    09:00Ясно и безоблачно+20°C69 %750 мм1.4 м/с2 %
    12:00Ясно и безоблачно+23°C50 %751 мм2.1 м/с2 %
    15:00Облачно с прояснениями+24°C48 %750 мм2.4 м/с2 %
    18:00Ясно и безоблачно+24°C53 %750 мм1.9 м/с2 %
    21:00Ясно и безоблачно+16°C78 %750 мм0.6 м/с2 %
  • 24июля
    Среда
    +14°
    +27°
    Ясно и безоблачно
    ВремяПогодаТемператураВлажностьДавлениеВетер, м/сВероятность осадков
    00:00Ясно и безоблачно+13°C74 %750 мм0.1 м/с2 %
    03:00Ясно и безоблачно+11°C90 %750 мм0.0 м/с2 %
    06:00Ясно и безоблачно+14°C80 %749 мм0.7 м/с2 %
    09:00Ясно и безоблачно+22°C72 %749 мм1.4 м/с2 %
    12:00Практически безоблачно+26°C49 %749 мм1.7 м/с6 %
    15:00Ясно и безоблачно+26°C48 %748 мм2.0 м/с19 %
    18:00Практически безоблачно+26°C53 %747 мм1.8 м/с6 %
    21:00Ясно и безоблачно+18°C74 %747 мм1.8 м/с1 %
  • 25июля
    Четверг
    +11°
    +25°
    Небольшая облачность, ливень
    ВремяПогодаТемператураВлажностьДавлениеВетер, м/сВероятность осадков
    00:00Практически безоблачно+16°C78 %747 мм2.0 м/с2 %
    03:00Практически безоблачно+15°C90 %746 мм1.4 м/с2 %
    06:00Практически безоблачно+16°C91 %746 мм0.7 м/с2 %
    09:00Практически безоблачно+21°C76 %746 мм1.8 м/с8 %
    12:00Небольшая облачность и лёгкий дождик+24°C68 %746 мм1.7 м/с53 %
    15:00Небольшая облачность, ливень+24°C68 %746 мм2.5 м/с59 %
    18:00Ясно и безоблачно+23°C69 %746 мм2.9 м/с40 %
    21:00Ясно и безоблачно+17°C81 %746 мм2.0 м/с5 %
  • 26июля
    Пятница
    +12°
    +25°
    Небольшая облачность
    ВремяПогодаТемператураВлажностьДавлениеВетер, м/сВероятность осадков
    00:00Ясно и безоблачно+14°C88 %747 мм1.7 м/с2 %
    03:00Ясно и безоблачно+12°C89 %747 мм1.0 м/с2 %
    06:00Ясно и безоблачно+13°C85 %748 мм0.7 м/с2 %
    09:00Практически безоблачно+20°C64 %748 мм1.9 м/с2 %
    12:00Облачно с прояснениями+24°C51 %749 мм1.8 м/с13 %
    15:00Небольшая облачность+24°C48 %748 мм2.2 м/с9 %
    18:00Ясно и безоблачно+23°C50 %748 мм2.1 м/с6 %
    21:00Ясно и безоблачно+16°C69 %749 мм1.4 м/с2 %
  • 27июля
    Суббота
    +14°
    +28°
    Практически безоблачно
    ВремяПогодаТемператураВлажностьДавлениеВетер, м/сВероятность осадков
    00:00Облачно с прояснениями+13°C78 %749 мм1.1 м/с2 %
    03:00Небольшая облачность+13°C69 %749 мм1.3 м/с2 %
    06:00Облачно с прояснениями+15°C65 %749 мм0.8 м/с2 %
    09:00Ясно и безоблачно+22°C68 %749 мм1.7 м/с5 %
    12:00Практически безоблачно+27°C54 %749 мм1.8 м/с11 %
    15:00Практически безоблачно+27°C53 %749 мм4.1 м/с17 %
    18:00Небольшая облачность+26°C56 %749 мм4.0 м/с30 %
    21:00Ясно и безоблачно+20°C68 %749 мм3.2 м/с7 %
Мы используем cookies
Соглашаюсь